Time;durP1;ratioP1;P1;durP2;ratioP2;P2;SDS_P1;SDS_P2;PMS_P1;PMS_P2;Temp;Humidity;BMP_temperature;BMP_pressure;BME280_temperature;BME280_humidity;BME280_pressure;Samples;Min_cycle;Max_cycle;Signal;HPM_P1;HPM_P2
2021/12/16 00:08:54;;;;;;;;;;;;;;;6.52;66.77;101252.31;4376060;32;34393;-79
2021/12/16 00:32:33;;;;;;;;;;;;;;;6.72;64.65;101259.16;4378704;32;35165;-78
2021/12/16 00:39:24;;;;;;;;;;;;;;;6.65;64.37;101261.28;4348091;32;33061;-79
2021/12/16 02:06:58;;;;;;;;;;;;;;;6.36;66.58;101232.09;4312366;33;34289;-79
2021/12/16 02:28:24;;;;;;;;;;;;;;;6.30;67.21;101214.78;4340638;33;33288;-78
2021/12/16 02:41:01;;;;;;;;;;;;;;;6.57;66.58;101220.34;4333655;33;33446;-78
2021/12/16 02:56:45;;;;;;;;;;;;;;;;;;;;;
2021/12/16 03:15:46;;;;;;;;;;;;;;;;;;;;;
2021/12/16 03:20:07;;;;;;;;;;;;;;;6.73;66.80;101187.66;4314617;33;32977;-79
2021/12/16 03:21:53;;;;;;;;;;;;;;;6.74;67.10;101185.87;4313590;33;33036;-79
2021/12/16 03:47:18;;;;;;;;;;;;;;;6.74;67.58;101189.37;4361729;32;34069;-78
2021/12/16 04:11:55;;;;;;;;;;;;;;;;;;;;;
2021/12/16 04:15:34;;;;;;;;;;;;;;;;;;;;;
2021/12/16 04:19:07;;;;;;;;;;;;;;;7.13;65.68;101187.09;4285081;33;33955;-79
2021/12/16 04:31:03;;;;;;;;;;;;;;;;;;;;;
2021/12/16 04:56:09;;;;;;;;;;;;;;;7.07;66.25;101182.16;4300107;33;34313;-79
2021/12/16 05:02:33;;;;;;;;;;;;;;;7.26;65.29;101174.84;4334309;33;34734;-79
2021/12/16 05:05:52;;;;;;;;;;;;;;;7.18;65.61;101173.59;4326967;33;34748;-81
2021/12/16 05:11:46;;;;;;;;;;;;;;;7.06;65.80;101180.44;4336131;33;33665;-80
2021/12/16 05:37:49;;;;;;;;;;;;;;;;;;;;;
2021/12/16 05:40:24;;;;;;;;;;;;;;;6.71;66.94;101183.41;4243101;33;36037;-79
2021/12/16 05:46:43;;;;;;;;;;;;;;;;;;;;;
2021/12/16 05:55:45;;;;;;;;;;;;;;;6.94;66.97;101207.63;4244122;33;35432;-78
2021/12/16 05:59:01;;;;;;;;;;;;;;;6.76;67.52;101203.37;4212836;33;33824;-78
2021/12/16 06:02:40;;;;;;;;;;;;;;;6.61;68.63;101217.44;4237863;33;33748;-78
2021/12/16 06:06:32;;;;;;;;;;;;;;;;;;;;;
2021/12/16 06:34:23;;;;;;;;;;;;;;;6.63;69.53;101209.44;4238947;33;33921;-80
2021/12/16 06:40:58;;;;;;;;;;;;;;;7.09;67.87;101212.00;4279429;33;32560;-80
2021/12/16 06:47:20;;;;;;;;;;;;;;;7.24;67.20;101218.22;4340159;33;33727;-80
2021/12/16 07:06:20;;;;;;;;;;;;;;;6.91;68.40;101234.22;4377944;32;34434;-79
2021/12/16 07:09:45;;;;;;;;;;;;;;;7.11;68.04;101230.47;4392397;32;32919;-80
2021/12/16 07:13:16;;;;;;;;;;;;;;;6.99;68.30;101232.00;4375313;32;34990;-79
2021/12/16 07:21:37;;;;;;;;;;;;;;;7.39;67.36;101235.88;4382163;32;34482;-79
2021/12/16 07:37:06;;;;;;;;;;;;;;;;;;;;;
2021/12/16 07:40:30;;;;;;;;;;;;;;;;;;;;;
2021/12/16 07:46:38;;;;;;;;;;;;;;;;;;;;;
2021/12/16 07:49:40;;;;;;;;;;;;;;;;;;;;;
2021/12/16 07:52:31;;;;;;;;;;;;;;;7.46;67.72;101226.63;4350054;32;34964;-79
2021/12/16 07:55:31;;;;;;;;;;;;;;;7.25;68.43;101235.78;4351855;32;35417;-79
2021/12/16 08:04:45;;;;;;;;;;;;;;;7.34;68.04;101236.13;4390738;27;33827;-84
2021/12/16 08:07:33;;;;;;;;;;;;;;;7.28;68.29;101238.28;4373398;32;34356;-83
2021/12/16 08:10:21;;;;;;;;;;;;;;;7.46;67.75;101232.75;4372430;32;32235;-82
2021/12/16 08:13:09;;;;;;;;;;;;;;;7.61;67.41;101237.16;4390324;32;34233;-83
2021/12/16 08:15:56;;;;;;;;;;;;;;;7.21;68.64;101239.56;4376648;32;35786;-83
2021/12/16 08:18:44;;;;;;;;;;;;;;;7.45;68.03;101238.16;4383875;32;33237;-84
2021/12/16 08:21:32;;;;;;;;;;;;;;;7.78;66.89;101238.78;4375914;32;33150;-83
2021/12/16 08:24:21;;;;;;;;;;;;;;;7.27;69.05;101241.88;4378305;32;33970;-84
2021/12/16 08:26:49;;;;;;;;;;;;;;;7.58;67.94;101233.84;4382412;32;35677;-83
2021/12/16 08:29:38;;;;;;;;;;;;;;;7.88;66.80;101237.28;4380904;32;35394;-82
2021/12/16 08:32:25;;;;;;;;;;;;;;;7.34;68.92;101246.72;4371041;32;32436;-84
2021/12/16 08:35:13;;;;;;;;;;;;;;;7.50;68.26;101244.88;4386958;32;34352;-84
2021/12/16 08:38:00;;;;;;;;;;;;;;;7.69;67.79;101229.63;4375940;32;35660;-84
2021/12/16 08:40:58;;;;;;;;;;;;;;;7.46;68.33;101229.28;4376262;32;33552;-83
2021/12/16 08:43:28;;;;;;;;;;;;;;;7.45;68.79;101231.06;4395366;32;32880;-83
2021/12/16 08:46:17;;;;;;;;;;;;;;;7.67;67.75;101231.50;4375701;32;34837;-83
2021/12/16 08:49:05;;;;;;;;;;;;;;;7.39;69.19;101236.72;4385557;32;35023;-83
2021/12/16 08:51:46;;;;;;;;;;;;;;;7.85;67.69;101224.25;4386798;32;34283;-83
2021/12/16 08:54:13;;;;;;;;;;;;;;;7.61;68.75;101231.88;4370788;32;33936;-83
2021/12/16 08:56:54;;;;;;;;;;;;;;;7.70;68.36;101231.31;4392574;32;33654;-83
2021/12/16 08:59:39;;;;;;;;;;;;;;;7.63;68.89;101227.31;4386667;32;34204;-84
2021/12/16 09:02:31;;;;;;;;;;;;;;;7.85;68.42;101233.03;4382982;32;34931;-84
2021/12/16 09:05:20;;;;;;;;;;;;;;;7.99;68.22;101230.41;4396581;32;32838;-83
2021/12/16 09:07:58;;;;;;;;;;;;;;;8.09;68.38;101223.59;4375143;32;33973;-84
2021/12/16 09:10:45;;;;;;;;;;;;;;;8.04;68.34;101223.03;4395790;32;36089;-84
2021/12/16 09:13:33;;;;;;;;;;;;;;;8.04;68.52;101216.87;4385477;32;34197;-84
2021/12/16 09:16:23;;;;;;;;;;;;;;;8.29;68.00;101223.25;4366337;32;33998;-84
2021/12/16 09:18:52;;;;;;;;;;;;;;;8.09;68.41;101217.47;4400819;32;34392;-84
2021/12/16 09:21:29;;;;;;;;;;;;;;;7.83;69.25;101226.13;4389394;32;35749;-84
2021/12/16 09:24:17;;;;;;;;;;;;;;;8.24;68.00;101220.06;4372331;32;34669;-83
2021/12/16 09:26:45;;;;;;;;;;;;;;;8.30;67.56;101218.81;4367450;32;32007;-84
2021/12/16 09:29:13;;;;;;;;;;;;;;;8.26;67.64;101219.94;4396137;32;33434;-84
2021/12/16 09:32:03;;;;;;;;;;;;;;;8.29;67.82;101222.41;4386039;32;34679;-83
2021/12/16 09:34:37;;;;;;;;;;;;;;;7.68;69.69;101219.97;4381075;32;34950;-84
2021/12/16 09:37:25;;;;;;;;;;;;;;;8.43;67.31;101219.72;4382608;32;32028;-84
2021/12/16 09:40:03;;;;;;;;;;;;;;;8.43;67.29;101212.66;4400033;32;34147;-84
2021/12/16 09:42:52;;;;;;;;;;;;;;;8.32;67.40;101215.12;4382191;32;35231;-84
2021/12/16 09:45:35;;;;;;;;;;;;;;;8.35;67.21;101222.00;4395278;32;35049;-83
2021/12/16 09:48:19;;;;;;;;;;;;;;;8.37;67.27;101218.31;4370819;32;33208;-83
2021/12/16 09:51:04;;;;;;;;;;;;;;;8.10;68.48;101211.22;4370634;32;34926;-82
2021/12/16 09:53:37;;;;;;;;;;;;;;;8.28;67.83;101210.94;4380590;32;34523;-84
2021/12/16 09:56:25;;;;;;;;;;;;;;;8.28;67.39;101210.94;4380603;32;34609;-83
2021/12/16 09:59:14;;;;;;;;;;;;;;;8.51;67.00;101207.72;4373431;32;33063;-82
2021/12/16 10:02:04;;;;;;;;;;;;;;;8.74;65.99;101217.69;4386562;32;33643;-83
2021/12/16 10:04:35;;;;;;;;;;;;;;;8.62;66.38;101218.50;4383797;32;35220;-82
2021/12/16 10:07:19;;;;;;;;;;;;;;;8.93;65.63;101218.22;4386506;32;33838;-82
2021/12/16 10:10:18;;;;;;;;;;;;;;;8.67;66.59;101213.72;4361489;32;34341;-82
2021/12/16 10:13:06;;;;;;;;;;;;;;;8.54;66.88;101204.84;4384383;32;33322;-82
2021/12/16 10:18:46;;;;;;;;;;;;;;;8.86;65.92;101196.53;4388282;32;33971;-83
2021/12/16 10:21:37;;;;;;;;;;;;;;;8.58;66.30;101193.09;4376601;32;33686;-82
2021/12/16 10:24:22;;;;;;;;;;;;;;;8.53;67.23;101192.53;4362151;32;33473;-83
2021/12/16 10:27:12;;;;;;;;;;;;;;;9.02;65.57;101183.09;4385206;32;35025;-83
2021/12/16 10:29:39;;;;;;;;;;;;;;;9.01;65.01;101182.28;4376195;32;34869;-83
2021/12/16 10:32:37;;;;;;;;;;;;;;;9.05;64.90;101178.44;4394601;32;33281;-83
2021/12/16 10:35:07;;;;;;;;;;;;;;;9.18;64.37;101181.97;4387210;32;33891;-82
2021/12/16 10:38:01;;;;;;;;;;;;;;;9.27;64.12;101172.56;4387660;32;35982;-83
2021/12/16 10:40:52;;;;;;;;;;;;;;;9.10;64.28;101171.00;4385746;32;35196;-83
2021/12/16 10:43:25;;;;;;;;;;;;;;;9.07;64.33;101184.50;4383437;32;33491;-82
2021/12/16 10:46:18;;;;;;;;;;;;;;;9.12;64.05;101171.78;4390121;32;33072;-84
2021/12/16 10:49:12;;;;;;;;;;;;;;;8.57;66.33;101175.47;4381227;32;35230;-82
2021/12/16 10:51:50;;;;;;;;;;;;;;;8.44;66.07;101178.06;4382896;32;33972;-82
2021/12/16 10:54:42;;;;;;;;;;;;;;;8.68;65.90;101173.84;4375221;32;32827;-83
2021/12/16 10:57:21;;;;;;;;;;;;;;;9.04;64.77;101160.81;4383154;32;34717;-83
2021/12/16 10:59:56;;;;;;;;;;;;;;;9.23;64.20;101163.09;4379549;32;35069;-82
2021/12/16 11:02:30;;;;;;;;;;;;;;;9.58;63.16;101164.22;4359939;32;33883;-82
2021/12/16 11:05:17;;;;;;;;;;;;;;;9.50;63.29;101171.84;4377924;32;33499;-82
2021/12/16 11:07:50;;;;;;;;;;;;;;;9.07;64.61;101170.41;4381840;32;33291;-84
2021/12/16 11:10:31;;;;;;;;;;;;;;;9.24;64.43;101172.75;4381688;32;35973;-84
2021/12/16 11:13:21;;;;;;;;;;;;;;;9.45;63.95;101163.38;4379475;32;34796;-83
2021/12/16 11:16:09;;;;;;;;;;;;;;;9.56;63.46;101166.13;4375987;32;34036;-84
2021/12/16 11:18:56;;;;;;;;;;;;;;;9.80;63.18;101159.97;4375449;32;34211;-82
2021/12/16 11:21:40;;;;;;;;;;;;;;;9.68;63.09;101155.53;4371511;32;35662;-83
2021/12/16 11:24:21;;;;;;;;;;;;;;;9.41;63.92;101153.88;4391652;32;34947;-84
2021/12/16 11:27:23;;;;;;;;;;;;;;;9.57;63.55;101163.38;4381187;32;33035;-84
2021/12/16 11:30:25;;;;;;;;;;;;;;;9.30;64.28;101151.09;4382201;32;33133;-84
2021/12/16 11:33:12;;;;;;;;;;;;;;;9.38;64.27;101140.81;4361979;32;873193;-84
2021/12/16 11:35:43;;;;;;;;;;;;;;;9.61;63.86;101143.59;4372126;32;33608;-83
2021/12/16 11:38:40;;;;;;;;;;;;;;;9.49;64.18;101136.50;4397733;32;32556;-83
2021/12/16 11:41:31;;;;;;;;;;;;;;;9.05;65.56;101138.63;4385567;32;34786;-84
2021/12/16 11:44:21;;;;;;;;;;;;;;;9.42;64.63;101137.84;4377339;32;35150;-83
2021/12/16 11:47:11;;;;;;;;;;;;;;;9.08;65.28;101138.41;4369246;32;35492;-83
2021/12/16 11:50:01;;;;;;;;;;;;;;;9.33;64.72;101135.81;4388687;32;32703;-83
2021/12/16 11:52:46;;;;;;;;;;;;;;;9.62;64.02;101124.03;4388711;32;34888;-83
2021/12/16 11:55:36;;;;;;;;;;;;;;;9.54;64.31;101121.06;4373999;32;33972;-83
2021/12/16 11:58:31;;;;;;;;;;;;;;;9.50;64.16;101118.72;4390762;32;34210;-83
2021/12/16 12:01:23;;;;;;;;;;;;;;;9.70;64.36;101115.53;4390827;32;32530;-83
2021/12/16 12:04:14;;;;;;;;;;;;;;;9.81;63.68;101119.16;4374854;32;34407;-83
2021/12/16 12:07:09;;;;;;;;;;;;;;;9.55;64.75;101109.47;4360643;32;35608;-84
2021/12/16 12:09:47;;;;;;;;;;;;;;;9.92;63.68;101111.25;4385252;32;33711;-84
2021/12/16 12:12:42;;;;;;;;;;;;;;;10.17;62.39;101108.59;4382517;32;33201;-84
2021/12/16 12:15:30;;;;;;;;;;;;;;;10.00;63.01;101118.72;4384605;32;34816;-83
2021/12/16 12:18:13;;;;;;;;;;;;;;;9.56;64.45;101115.66;4375354;32;34589;-83
2021/12/16 12:20:45;;;;;;;;;;;;;;;9.65;63.85;101109.72;4383369;32;35369;-84
2021/12/16 12:23:22;;;;;;;;;;;;;;;9.62;64.04;101099.31;4386783;32;33130;-83
2021/12/16 12:26:16;;;;;;;;;;;;;;;9.58;63.98;101117.25;4387720;32;33637;-83
2021/12/16 12:28:53;;;;;;;;;;;;;;;9.63;64.21;101116.94;4373703;32;35423;-83
2021/12/16 12:31:23;;;;;;;;;;;;;;;9.70;63.88;101115.53;4382067;32;34626;-83
2021/12/16 12:33:53;;;;;;;;;;;;;;;9.55;63.95;101114.78;4382530;32;32370;-83
2021/12/16 12:36:58;;;;;;;;;;;;;;;9.54;64.07;101122.88;4384554;32;35558;-83
2021/12/16 12:39:50;;;;;;;;;;;;;;;9.63;64.00;101119.59;4383065;32;33862;-83
2021/12/16 12:42:18;;;;;;;;;;;;;;;9.39;64.26;101113.31;4370925;32;33557;-83
2021/12/16 12:45:06;;;;;;;;;;;;;;;9.52;63.82;101111.50;4385114;32;31906;-82
2021/12/16 12:48:16;;;;;;;;;;;;;;;9.10;65.48;101111.78;4376404;32;32471;-83
2021/12/16 12:50:47;;;;;;;;;;;;;;;9.27;65.13;101108.84;4383117;32;36091;-85
2021/12/16 12:53:52;;;;;;;;;;;;;;;9.15;65.05;101109.66;4388263;32;33327;-85
2021/12/16 12:56:43;;;;;;;;;;;;;;;8.65;66.71;101107.72;4386112;32;33854;-86
2021/12/16 12:59:33;;;;;;;;;;;;;;;9.46;64.60;101115.44;4384823;32;33635;-82
2021/12/16 13:02:28;;;;;;;;;;;;;;;8.76;66.43;101112.31;4381893;32;35146;-84
2021/12/16 13:05:20;;;;;;;;;;;;;;;9.16;65.27;101114.87;4389519;32;35426;-84
2021/12/16 13:08:09;;;;;;;;;;;;;;;9.14;65.01;101114.13;4372346;32;32474;-84
2021/12/16 13:11:02;;;;;;;;;;;;;;;8.83;66.63;101116.28;4388042;32;34174;-84
2021/12/16 13:13:55;;;;;;;;;;;;;;;8.92;66.09;101110.34;4379555;32;35253;-85
2021/12/16 13:17:01;;;;;;;;;;;;;;;9.03;65.61;101115.78;4376986;32;35065;-86
2021/12/16 13:30:17;;;;;;;;;;;;;;;;;;;;;
2021/12/16 13:33:24;;;;;;;;;;;;;;;8.89;66.14;101124.66;4386058;32;32763;-84
2021/12/16 13:36:40;;;;;;;;;;;;;;;9.31;64.52;101131.56;4377348;32;33795;-84
2021/12/16 13:39:29;;;;;;;;;;;;;;;9.21;64.73;101134.00;4380099;32;33772;-85
2021/12/16 13:42:18;;;;;;;;;;;;;;;8.82;66.16;101138.44;4399680;32;34513;-88
2021/12/16 13:45:10;;;;;;;;;;;;;;;8.86;65.92;101143.47;4392252;32;33349;-87
2021/12/16 14:03:43;;;;;;;;;;;;;;;9.07;65.48;101144.69;4386537;32;34427;-88
2021/12/16 14:06:51;;;;;;;;;;;;;;;8.60;67.28;101149.59;4388108;32;35381;-88
2021/12/16 14:09:59;;;;;;;;;;;;;;;8.93;65.86;101144.75;4391575;32;33355;-87
2021/12/16 14:17:11;;;;;;;;;;;;;;;8.77;66.57;101144.06;4357760;32;34171;-88
2021/12/16 14:23:04;;;;;;;;;;;;;;;8.93;66.03;101152.72;4359881;32;31866;-87
2021/12/16 14:37:27;;;;;;;;;;;;;;;9.10;65.63;101138.31;4343411;32;33446;-88
2021/12/16 14:40:39;;;;;;;;;;;;;;;9.07;65.51;101139.38;4343267;32;36471;-86
2021/12/16 14:43:37;;;;;;;;;;;;;;;8.87;66.14;101146.94;4356664;32;32950;-87
2021/12/16 14:46:09;;;;;;;;;;;;;;;8.91;66.20;101151.13;4353742;32;33817;-85
2021/12/16 14:49:17;;;;;;;;;;;;;;;9.09;65.30;101147.25;4351917;32;33701;-87
2021/12/16 14:52:11;;;;;;;;;;;;;;;9.14;65.32;101148.63;4364397;32;34451;-86
2021/12/16 14:55:00;;;;;;;;;;;;;;;9.31;64.66;101158.13;4390900;32;33639;-88
2021/12/16 14:57:49;;;;;;;;;;;;;;;9.06;65.68;101155.41;4384187;32;34223;-89
2021/12/16 15:01:23;;;;;;;;;;;;;;;9.09;65.41;101160.53;4376477;32;33489;-86
2021/12/16 15:03:59;;;;;;;;;;;;;;;9.15;65.43;101154.78;4381440;32;35692;-86
2021/12/16 15:06:53;;;;;;;;;;;;;;;9.21;64.93;101157.03;4392642;32;34765;-89
2021/12/16 15:09:39;;;;;;;;;;;;;;;8.87;66.41;101158.44;4394270;32;34553;-87
2021/12/16 15:12:37;;;;;;;;;;;;;;;9.08;65.59;101153.50;4373887;32;34449;-88
2021/12/16 15:15:36;;;;;;;;;;;;;;;8.88;66.11;101156.63;4391891;32;34374;-84
2021/12/16 15:42:51;;;;;;;;;;;;;;;8.56;67.34;101142.81;4389135;32;34371;-85
2021/12/16 15:45:42;;;;;;;;;;;;;;;7.93;69.83;101147.78;4384315;32;33609;-85
2021/12/16 15:48:27;;;;;;;;;;;;;;;8.25;68.52;101144.00;4376253;32;34231;-84
2021/12/16 15:51:11;;;;;;;;;;;;;;;8.42;68.17;101141.13;4384234;32;36098;-84
2021/12/16 15:54:00;;;;;;;;;;;;;;;8.42;68.16;101131.41;4378044;32;35402;-85
2021/12/16 15:56:39;;;;;;;;;;;;;;;8.35;68.42;101145.97;4381870;32;32095;-84
2021/12/16 15:59:28;;;;;;;;;;;;;;;8.38;68.14;101144.94;4377126;32;33974;-85
2021/12/16 16:02:01;;;;;;;;;;;;;;;8.26;68.89;101143.91;4388885;32;35289;-86
2021/12/16 16:04:37;;;;;;;;;;;;;;;8.33;68.41;101144.38;4393611;32;34404;-85
2021/12/16 16:07:24;;;;;;;;;;;;;;;8.33;68.18;101153.19;4378695;32;32406;-84
2021/12/16 16:10:15;;;;;;;;;;;;;;;8.17;68.61;101159.50;4373675;32;33558;-84
2021/12/16 16:13:07;;;;;;;;;;;;;;;8.24;68.79;101159.06;4381234;32;35659;-85
2021/12/16 16:15:55;;;;;;;;;;;;;;;8.20;68.90;101170.81;4375288;32;34409;-85
2021/12/16 16:18:54;;;;;;;;;;;;;;;8.08;69.25;101163.59;4387419;32;33380;-85
2021/12/16 16:21:43;;;;;;;;;;;;;;;8.48;67.75;101164.62;4387423;32;34275;-87
2021/12/16 16:24:33;;;;;;;;;;;;;;;8.23;68.78;101169.75;4398949;32;34745;-85
2021/12/16 16:27:23;;;;;;;;;;;;;;;8.32;67.94;101172.69;4384483;32;34319;-85
2021/12/16 16:30:10;;;;;;;;;;;;;;;8.54;67.33;101168.56;4387882;32;34237;-85
2021/12/16 16:32:58;;;;;;;;;;;;;;;8.27;68.01;101164.16;4386808;32;33906;-85
2021/12/16 16:35:49;;;;;;;;;;;;;;;8.43;67.82;101164.03;4383100;32;34587;-89
2021/12/16 16:38:55;;;;;;;;;;;;;;;8.53;67.45;101168.69;4403514;32;33669;-89
2021/12/16 16:41:45;;;;;;;;;;;;;;;8.32;68.18;101171.84;4383880;32;33026;-86
2021/12/16 16:44:36;;;;;;;;;;;;;;;8.45;67.62;101161.19;4391214;32;33236;-86
2021/12/16 16:47:34;;;;;;;;;;;;;;;8.38;67.99;101168.81;4372380;32;35096;-86
2021/12/16 16:50:23;;;;;;;;;;;;;;;7.96;69.18;101168.78;4377615;32;34332;-85
2021/12/16 16:53:11;;;;;;;;;;;;;;;8.27;68.16;101168.59;4367881;32;33452;-87
2021/12/16 16:55:48;;;;;;;;;;;;;;;7.90;69.64;101164.72;4373395;32;34742;-85
2021/12/16 16:58:35;;;;;;;;;;;;;;;7.94;69.64;101166.22;4386142;32;34982;-87
2021/12/16 17:01:27;;;;;;;;;;;;;;;8.10;69.01;101169.63;4397281;32;34029;-85
2021/12/16 17:04:13;;;;;;;;;;;;;;;8.12;68.69;101165.09;4385441;32;32278;-85
2021/12/16 17:07:02;;;;;;;;;;;;;;;8.08;68.99;101152.13;4389184;32;33597;-86
2021/12/16 17:09:40;;;;;;;;;;;;;;;8.22;68.30;101166.25;4390728;32;35784;-86
2021/12/16 17:12:34;;;;;;;;;;;;;;;8.24;68.14;101163.50;4384879;32;32871;-88
2021/12/16 17:15:34;;;;;;;;;;;;;;;8.03;69.03;101168.31;4372888;32;32360;-84
2021/12/16 17:18:03;;;;;;;;;;;;;;;7.94;69.20;101176.81;4388574;32;34601;-83
2021/12/16 17:20:52;;;;;;;;;;;;;;;8.11;68.67;101181.94;4378297;32;35210;-84
2021/12/16 17:23:41;;;;;;;;;;;;;;;8.34;67.67;101173.44;4381499;32;33762;-85
2021/12/16 17:26:33;;;;;;;;;;;;;;;8.26;67.76;101172.22;4377632;32;32440;-85
2021/12/16 17:29:23;;;;;;;;;;;;;;;8.34;67.51;101169.94;4389700;32;35074;-85
2021/12/16 17:32:10;;;;;;;;;;;;;;;8.37;67.01;101183.03;4384329;32;35148;-86
2021/12/16 17:34:58;;;;;;;;;;;;;;;8.35;66.92;101182.25;4388191;32;34367;-85
2021/12/16 17:37:47;;;;;;;;;;;;;;;8.43;66.78;101177.31;4388570;32;33071;-86
2021/12/16 17:40:56;;;;;;;;;;;;;;;8.55;66.10;101170.28;4377479;32;33064;-85
2021/12/16 17:43:43;;;;;;;;;;;;;;;8.55;66.13;101172.94;4381481;32;34325;-86
2021/12/16 17:46:31;;;;;;;;;;;;;;;8.44;66.47;101179.87;4386015;32;34662;-85
2021/12/16 17:49:08;;;;;;;;;;;;;;;8.53;66.17;101176.63;4367298;32;34221;-84
2021/12/16 17:51:56;;;;;;;;;;;;;;;8.60;65.73;101193.88;4384087;32;34181;-85
2021/12/16 17:54:48;;;;;;;;;;;;;;;8.37;66.49;101215.66;4384046;32;36037;-84
2021/12/16 17:57:38;;;;;;;;;;;;;;;8.45;66.07;101198.31;4389046;32;35082;-89
2021/12/16 18:00:35;;;;;;;;;;;;;;;8.68;65.36;101189.75;4391312;32;34503;-85
2021/12/16 18:03:16;;;;;;;;;;;;;;;8.44;66.44;101191.31;4389653;32;34279;-86
2021/12/16 18:06:08;;;;;;;;;;;;;;;8.74;65.00;101183.19;4389302;32;33757;-85
2021/12/16 18:08:58;;;;;;;;;;;;;;;8.64;65.37;101177.66;4381125;32;34686;-89
2021/12/16 18:11:51;;;;;;;;;;;;;;;8.55;65.71;101178.25;4388072;32;32766;-86
2021/12/16 18:14:51;;;;;;;;;;;;;;;8.75;65.08;101164.53;4386621;32;33979;-83
2021/12/16 18:17:40;;;;;;;;;;;;;;;8.81;64.90;101165.94;4397309;32;36919;-87
2021/12/16 18:20:33;;;;;;;;;;;;;;;8.95;64.31;101171.19;4387493;32;34662;-86
2021/12/16 18:23:26;;;;;;;;;;;;;;;8.97;64.08;101167.47;4389554;32;32345;-87
2021/12/16 18:26:13;;;;;;;;;;;;;;;8.73;64.55;101165.59;4380345;32;33307;-87
2021/12/16 18:28:49;;;;;;;;;;;;;;;8.58;65.42;101163.91;4387059;32;35764;-85
2021/12/16 18:31:30;;;;;;;;;;;;;;;8.84;64.45;101168.38;4375809;32;34463;-85
2021/12/16 18:34:20;;;;;;;;;;;;;;;8.83;64.60;101172.87;4370452;32;34034;-86
2021/12/16 18:37:07;;;;;;;;;;;;;;;8.94;63.99;101173.00;4379978;32;33663;-87
2021/12/16 18:39:54;;;;;;;;;;;;;;;8.86;64.50;101179.75;4390009;32;35524;-88
2021/12/16 18:43:07;;;;;;;;;;;;;;;9.05;63.98;101178.44;4388590;32;33637;-86
2021/12/16 18:45:57;;;;;;;;;;;;;;;9.02;63.92;101183.09;4376023;32;33212;-85
2021/12/16 18:52:10;;;;;;;;;;;;;;;8.68;65.34;101178.28;4368240;32;36849;-87
2021/12/16 18:54:40;;;;;;;;;;;;;;;8.75;65.34;101175.16;4385838;32;34930;-85
2021/12/16 18:57:30;;;;;;;;;;;;;;;8.95;64.65;101166.75;4371179;32;32643;-85
2021/12/16 19:00:39;;;;;;;;;;;;;;;8.92;64.76;101163.44;4372516;32;34445;-85
2021/12/16 19:03:14;;;;;;;;;;;;;;;9.10;64.30;101160.41;4381081;32;35965;-85
2021/12/16 19:06:02;;;;;;;;;;;;;;;8.83;65.34;101166.69;4392422;32;34092;-85
2021/12/16 19:08:51;;;;;;;;;;;;;;;9.00;64.90;101169.09;4383669;32;33276;-85
2021/12/16 19:11:32;;;;;;;;;;;;;;;9.11;64.17;101164.78;4370747;32;32920;-83
2021/12/16 19:14:26;;;;;;;;;;;;;;;9.19;64.15;101173.06;4388043;32;34416;-82
2021/12/16 19:17:16;;;;;;;;;;;;;;;9.19;63.96;101172.22;4384739;32;35495;-84
2021/12/16 19:20:06;;;;;;;;;;;;;;;9.15;64.34;101171.56;4389569;32;32432;-84
2021/12/16 19:22:59;;;;;;;;;;;;;;;9.25;64.11;101175.31;4378285;32;33934;-84
2021/12/16 19:25:45;;;;;;;;;;;;;;;9.09;64.81;101168.47;4389562;32;34040;-85
2021/12/16 19:28:40;;;;;;;;;;;;;;;8.74;66.41;101178.75;4382133;32;33750;-84
2021/12/16 19:31:19;;;;;;;;;;;;;;;8.94;65.65;101173.00;4373511;32;31976;-83
2021/12/16 19:34:09;;;;;;;;;;;;;;;9.11;65.25;101177.19;4385468;32;33912;-83
2021/12/16 19:36:56;;;;;;;;;;;;;;;8.85;66.26;101170.94;4389321;32;35221;-84
2021/12/16 19:40:01;;;;;;;;;;;;;;;9.01;65.78;101166.34;4386675;32;35501;-83
2021/12/16 19:42:52;;;;;;;;;;;;;;;9.08;65.80;101167.62;4380441;32;33630;-83
2021/12/16 19:45:42;;;;;;;;;;;;;;;8.94;66.39;101154.44;4390772;32;32895;-84
2021/12/16 19:48:30;;;;;;;;;;;;;;;8.97;66.17;101148.06;4387010;32;35229;-85
2021/12/16 19:51:38;;;;;;;;;;;;;;;8.86;66.66;101156.72;4389076;32;34595;-85
2021/12/16 19:54:22;;;;;;;;;;;;;;;8.99;66.43;101162.91;4389952;32;33327;-83
2021/12/16 19:57:00;;;;;;;;;;;;;;;8.84;67.17;101163.94;4372886;32;33955;-85
2021/12/16 19:59:44;;;;;;;;;;;;;;;8.82;67.16;101157.03;4377741;32;34770;-84
2021/12/16 20:02:34;;;;;;;;;;;;;;;8.93;66.97;101154.50;4385972;32;34597;-85
2021/12/16 20:05:26;;;;;;;;;;;;;;;8.74;67.65;101156.66;4387980;32;32043;-85
2021/12/16 20:08:15;;;;;;;;;;;;;;;8.40;69.19;101143.88;4351986;32;36078;-85
2021/12/16 20:11:00;;;;;;;;;;;;;;;8.67;68.00;101135.00;4381788;32;33933;-85
2021/12/16 20:13:49;;;;;;;;;;;;;;;8.54;68.60;101139.38;4385660;32;34410;-85
2021/12/16 20:16:30;;;;;;;;;;;;;;;8.44;69.05;101125.00;4388636;32;33251;-84
2021/12/16 20:19:08;;;;;;;;;;;;;;;8.55;68.66;101121.69;4365106;32;33486;-85
2021/12/16 20:22:07;;;;;;;;;;;;;;;8.55;68.66;101117.25;4380329;32;34475;-84
2021/12/16 20:24:57;;;;;;;;;;;;;;;8.16;70.11;101123.34;4361480;32;35293;-84
2021/12/16 20:27:42;;;;;;;;;;;;;;;8.44;69.42;101117.06;4385824;32;33944;-85
2021/12/16 20:30:39;;;;;;;;;;;;;;;8.50;69.06;101126.41;4388154;32;33803;-85
2021/12/16 20:33:29;;;;;;;;;;;;;;;8.36;69.60;101122.94;4407703;27;34807;-83
2021/12/16 20:36:04;;;;;;;;;;;;;;;8.05;70.94;101128.47;4366078;32;35067;-84
2021/12/16 20:38:35;;;;;;;;;;;;;;;8.06;70.82;101122.22;4366941;32;33066;-84
2021/12/16 20:41:06;;;;;;;;;;;;;;;8.23;70.43;101133.53;4382153;32;33725;-84
2021/12/16 20:43:38;;;;;;;;;;;;;;;7.86;71.67;101128.78;4377283;32;36101;-84
2021/12/16 20:46:07;;;;;;;;;;;;;;;8.27;70.26;101132.34;4375889;32;35223;-84
2021/12/16 20:48:35;;;;;;;;;;;;;;;8.14;70.76;101130.53;4387264;32;32639;-84
2021/12/16 20:51:05;;;;;;;;;;;;;;;7.83;72.04;101136.06;4383346;32;34751;-84
2021/12/16 20:53:34;;;;;;;;;;;;;;;8.01;71.12;101138.41;4386797;32;35442;-84
2021/12/16 20:56:03;;;;;;;;;;;;;;;8.12;70.80;101133.28;4382608;32;34307;-84
2021/12/16 20:58:32;;;;;;;;;;;;;;;8.18;70.64;101126.75;4381181;32;32576;-84
2021/12/16 21:01:04;;;;;;;;;;;;;;;8.13;70.72;101131.50;4383466;32;34008;-84
2021/12/16 21:03:32;;;;;;;;;;;;;;;8.29;70.35;101130.44;4381622;32;35807;-85
2021/12/16 21:06:02;;;;;;;;;;;;;;;8.27;70.29;101126.19;4393890;32;33390;-85
2021/12/16 21:08:30;;;;;;;;;;;;;;;8.28;70.52;101133.22;4383202;32;32421;-84
2021/12/16 21:10:59;;;;;;;;;;;;;;;8.35;70.08;101122.13;4384468;32;33733;-86
2021/12/16 21:13:27;;;;;;;;;;;;;;;8.37;69.95;101122.03;4384028;32;34496;-85
2021/12/16 21:15:55;;;;;;;;;;;;;;;8.65;68.89;101120.12;4387719;32;35046;-84
2021/12/16 21:18:24;;;;;;;;;;;;;;;8.24;70.05;101118.44;4384162;32;33101;-84
2021/12/16 21:20:53;;;;;;;;;;;;;;;8.32;70.14;101121.47;4389923;32;34642;-85
2021/12/16 21:23:21;;;;;;;;;;;;;;;8.31;70.02;101127.72;4388338;32;35264;-85
2021/12/16 21:25:49;;;;;;;;;;;;;;;8.40;69.45;101124.47;4383926;32;35149;-85
2021/12/16 21:28:20;;;;;;;;;;;;;;;8.11;70.44;101133.41;4377714;32;33695;-84
2021/12/16 21:30:50;;;;;;;;;;;;;;;8.34;69.75;101125.72;4384435;32;34425;-85
2021/12/16 21:33:24;;;;;;;;;;;;;;;8.16;70.04;101123.34;4388129;32;34956;-84
2021/12/16 21:36:03;;;;;;;;;;;;;;;8.43;69.04;101131.28;4400554;32;34245;-85
2021/12/16 21:38:32;;;;;;;;;;;;;;;8.39;68.86;101134.22;4376430;32;32929;-85
2021/12/16 21:41:00;;;;;;;;;;;;;;;8.31;69.05;101127.72;4387304;32;33985;-85
2021/12/16 21:43:28;;;;;;;;;;;;;;;8.26;69.49;101130.66;4388932;32;36007;-85
2021/12/16 21:45:55;;;;;;;;;;;;;;;8.11;69.64;101126.28;4375293;32;33954;-85
2021/12/16 21:48:23;;;;;;;;;;;;;;;7.98;70.27;101119.19;4377322;32;32973;-85
2021/12/16 21:50:51;;;;;;;;;;;;;;;8.13;69.83;101134.97;4380685;32;34813;-85
2021/12/16 21:53:22;;;;;;;;;;;;;;;8.13;69.66;101134.16;4375642;32;35920;-84
2021/12/16 21:55:50;;;;;;;;;;;;;;;8.03;69.82;101125.91;4379497;32;34120;-84
2021/12/16 21:58:20;;;;;;;;;;;;;;;8.21;69.25;101124.78;4375241;32;33281;-86
2021/12/16 22:00:47;;;;;;;;;;;;;;;7.99;70.09;101132.34;4372685;32;35010;-83
2021/12/16 22:03:17;;;;;;;;;;;;;;;8.23;69.44;101125.56;4382265;32;34567;-84
2021/12/16 22:05:45;;;;;;;;;;;;;;;8.05;70.15;101121.37;4385255;32;35350;-83
2021/12/16 22:08:12;;;;;;;;;;;;;;;8.04;70.23;101121.47;4387854;32;32986;-84